Garden City Regional Airport Garden City US
ICAO: KGCK
IATA: GCK
Category: Medium
Scheduled Services: Yes

Elevation: 2891 ft
TransAlt. 18000 ft.

Airport Communications:
ASOS:121.325
KANSAS CITY CNTR:125.2
CTAF:118.15
GND:119
WICHITA RDO:122.45
TWR:118.15
UNICOM:122.95

KGCK Zoom In..

Runways:

(A) RW 12 length 5700 ft width 100 ft
---- / hdg 126

(B) RW 17 length 7299 ft width 100 ft
---- / hdg 171

(C) RW 30 length 5700 ft width 100 ft
---- / hdg 306

(D) RW 35 length 7299 ft width 100 ft
ILS 109.90 / hdg 351

Location; KGCK
Day. 22 / Time. 00.54 Zulu
* Altimeter: 29.92
* Temperature: 25° c. 77°f.
* Wind from: 170° Speed 12 kn.
Dewpoint: 13° c.
Visibility: 10 Statute Miles.
Clouds: Clear (automated report).

KGCK 220054Z 17012KT 10SM CLR 25/13 A2992 RMK AO2 SLP111 T02500128


Wind From 170°
Speed 12 kn.

 
 
jpsmedia.com for Web Design SOUNDCLOUD worldairports.se 2018   terms of use